sensor_id;sensor_type;location;lat;lon;timestamp;temperature;humidity
4749;DHT22;2388;53.582;9.962;2023-10-31T00:01:47;12.50;99.90
4749;DHT22;2388;53.582;9.962;2023-10-31T00:04:14;12.50;99.90
4749;DHT22;2388;53.582;9.962;2023-10-31T00:06:40;12.50;99.90
4749;DHT22;2388;53.582;9.962;2023-10-31T00:09:05;12.50;99.90
4749;DHT22;2388;53.582;9.962;2023-10-31T00:11:31;12.50;99.90
4749;DHT22;2388;53.582;9.962;2023-10-31T00:13:56;12.50;99.90
4749;DHT22;2388;53.582;9.962;2023-10-31T00:16:22;12.50;99.90
4749;DHT22;2388;53.582;9.962;2023-10-31T00:18:48;12.50;99.90
4749;DHT22;2388;53.582;9.962;2023-10-31T00:21:13;12.50;99.90
4749;DHT22;2388;53.582;9.962;2023-10-31T00:23:46;12.50;99.90
4749;DHT22;2388;53.582;9.962;2023-10-31T00:26:11;12.50;99.90
4749;DHT22;2388;53.582;9.962;2023-10-31T00:28:37;12.50;99.90
4749;DHT22;2388;53.582;9.962;2023-10-31T00:31:03;12.50;99.90
4749;DHT22;2388;53.582;9.962;2023-10-31T00:33:29;12.50;99.90
4749;DHT22;2388;53.582;9.962;2023-10-31T00:35:55;12.50;99.90
4749;DHT22;2388;53.582;9.962;2023-10-31T00:38:20;12.50;99.90
4749;DHT22;2388;53.582;9.962;2023-10-31T00:40:46;12.50;99.90
4749;DHT22;2388;53.582;9.962;2023-10-31T00:43:11;12.60;99.90
4749;DHT22;2388;53.582;9.962;2023-10-31T00:45:37;12.60;99.90
4749;DHT22;2388;53.582;9.962;2023-10-31T00:48:02;12.60;99.90
4749;DHT22;2388;53.582;9.962;2023-10-31T00:50:28;12.60;99.90
4749;DHT22;2388;53.582;9.962;2023-10-31T00:52:54;12.60;99.90
4749;DHT22;2388;53.582;9.962;2023-10-31T00:55:20;12.60;99.90
4749;DHT22;2388;53.582;9.962;2023-10-31T00:57:45;12.60;99.90
4749;DHT22;2388;53.582;9.962;2023-10-31T01:00:11;12.60;99.90
4749;DHT22;2388;53.582;9.962;2023-10-31T01:02:37;12.50;99.90
4749;DHT22;2388;53.582;9.962;2023-10-31T01:05:02;12.50;99.90
4749;DHT22;2388;53.582;9.962;2023-10-31T01:07:28;12.40;99.90
4749;DHT22;2388;53.582;9.962;2023-10-31T01:09:53;12.50;99.90
4749;DHT22;2388;53.582;9.962;2023-10-31T01:12:19;12.50;99.90
4749;DHT22;2388;53.582;9.962;2023-10-31T01:14:44;12.50;99.90
4749;DHT22;2388;53.582;9.962;2023-10-31T01:17:10;12.40;99.90
4749;DHT22;2388;53.582;9.962;2023-10-31T01:19:35;12.40;99.90
4749;DHT22;2388;53.582;9.962;2023-10-31T01:22:01;12.40;99.90
4749;DHT22;2388;53.582;9.962;2023-10-31T01:24:26;12.40;99.90
4749;DHT22;2388;53.582;9.962;2023-10-31T01:26:51;12.40;99.90
4749;DHT22;2388;53.582;9.962;2023-10-31T01:29:17;12.40;99.90
4749;DHT22;2388;53.582;9.962;2023-10-31T01:31:42;12.40;99.90
4749;DHT22;2388;53.582;9.962;2023-10-31T01:34:08;12.40;99.90
4749;DHT22;2388;53.582;9.962;2023-10-31T01:36:34;12.40;99.90
4749;DHT22;2388;53.582;9.962;2023-10-31T01:38:59;12.40;99.90
4749;DHT22;2388;53.582;9.962;2023-10-31T01:41:25;12.40;99.90
4749;DHT22;2388;53.582;9.962;2023-10-31T01:43:50;12.40;99.90
4749;DHT22;2388;53.582;9.962;2023-10-31T01:46:16;12.30;99.90
4749;DHT22;2388;53.582;9.962;2023-10-31T01:48:42;12.40;99.90
4749;DHT22;2388;53.582;9.962;2023-10-31T01:51:09;12.40;99.90
4749;DHT22;2388;53.582;9.962;2023-10-31T01:53:35;12.40;99.90
4749;DHT22;2388;53.582;9.962;2023-10-31T01:56:03;12.40;99.90
4749;DHT22;2388;53.582;9.962;2023-10-31T01:58:31;12.40;99.90
4749;DHT22;2388;53.582;9.962;2023-10-31T02:00:59;12.40;99.90
4749;DHT22;2388;53.582;9.962;2023-10-31T02:03:24;12.40;99.90
4749;DHT22;2388;53.582;9.962;2023-10-31T02:05:54;12.40;99.90
4749;DHT22;2388;53.582;9.962;2023-10-31T02:08:19;12.40;99.90
4749;DHT22;2388;53.582;9.962;2023-10-31T02:10:45;12.40;99.90
4749;DHT22;2388;53.582;9.962;2023-10-31T02:13:14;12.40;99.90
4749;DHT22;2388;53.582;9.962;2023-10-31T02:15:40;12.40;99.90
4749;DHT22;2388;53.582;9.962;2023-10-31T02:18:06;12.40;99.90
4749;DHT22;2388;53.582;9.962;2023-10-31T02:20:32;12.40;99.90
4749;DHT22;2388;53.582;9.962;2023-10-31T02:22:58;12.40;99.90
4749;DHT22;2388;53.582;9.962;2023-10-31T02:25:23;12.50;99.90
4749;DHT22;2388;53.582;9.962;2023-10-31T02:27:49;12.40;99.90
4749;DHT22;2388;53.582;9.962;2023-10-31T02:30:14;12.40;99.90
4749;DHT22;2388;53.582;9.962;2023-10-31T02:32:40;12.40;99.90
4749;DHT22;2388;53.582;9.962;2023-10-31T02:35:07;12.50;99.90
4749;DHT22;2388;53.582;9.962;2023-10-31T02:37:32;12.50;99.90
4749;DHT22;2388;53.582;9.962;2023-10-31T02:39:58;12.50;99.90
4749;DHT22;2388;53.582;9.962;2023-10-31T02:42:25;12.50;99.90
4749;DHT22;2388;53.582;9.962;2023-10-31T02:44:51;12.50;99.90
4749;DHT22;2388;53.582;9.962;2023-10-31T02:47:16;12.50;99.90
4749;DHT22;2388;53.582;9.962;2023-10-31T02:49:42;12.50;99.90
4749;DHT22;2388;53.582;9.962;2023-10-31T02:52:07;12.50;99.90
4749;DHT22;2388;53.582;9.962;2023-10-31T02:54:33;12.50;99.90
4749;DHT22;2388;53.582;9.962;2023-10-31T02:56:58;12.50;99.90
4749;DHT22;2388;53.582;9.962;2023-10-31T02:59:24;12.50;99.90
4749;DHT22;2388;53.582;9.962;2023-10-31T03:01:49;12.50;99.90
4749;DHT22;2388;53.582;9.962;2023-10-31T03:04:15;12.50;99.90
4749;DHT22;2388;53.582;9.962;2023-10-31T03:06:40;12.60;99.90
4749;DHT22;2388;53.582;9.962;2023-10-31T03:09:06;12.50;99.90
4749;DHT22;2388;53.582;9.962;2023-10-31T03:11:32;12.60;99.90
4749;DHT22;2388;53.582;9.962;2023-10-31T03:13:58;12.60;99.90
4749;DHT22;2388;53.582;9.962;2023-10-31T03:16:24;12.60;99.90
4749;DHT22;2388;53.582;9.962;2023-10-31T03:18:49;12.50;99.90
4749;DHT22;2388;53.582;9.962;2023-10-31T03:21:15;12.60;99.90
4749;DHT22;2388;53.582;9.962;2023-10-31T03:23:49;12.60;99.90
4749;DHT22;2388;53.582;9.962;2023-10-31T03:26:15;12.60;99.90
4749;DHT22;2388;53.582;9.962;2023-10-31T03:28:43;12.60;99.90
4749;DHT22;2388;53.582;9.962;2023-10-31T03:31:09;12.60;99.90
4749;DHT22;2388;53.582;9.962;2023-10-31T03:33:35;12.60;99.90
4749;DHT22;2388;53.582;9.962;2023-10-31T03:36:00;12.60;99.90
4749;DHT22;2388;53.582;9.962;2023-10-31T03:38:26;12.50;99.90
4749;DHT22;2388;53.582;9.962;2023-10-31T03:40:51;12.50;99.90
4749;DHT22;2388;53.582;9.962;2023-10-31T03:43:17;12.60;99.90
4749;DHT22;2388;53.582;9.962;2023-10-31T03:45:42;12.60;99.90
4749;DHT22;2388;53.582;9.962;2023-10-31T03:48:08;12.60;99.90
4749;DHT22;2388;53.582;9.962;2023-10-31T03:50:33;12.60;99.90
4749;DHT22;2388;53.582;9.962;2023-10-31T03:52:59;12.60;99.90
4749;DHT22;2388;53.582;9.962;2023-10-31T03:55:24;12.60;99.90
4749;DHT22;2388;53.582;9.962;2023-10-31T03:57:50;12.50;99.90
4749;DHT22;2388;53.582;9.962;2023-10-31T04:00:16;12.60;99.90
4749;DHT22;2388;53.582;9.962;2023-10-31T04:02:41;12.60;99.90
4749;DHT22;2388;53.582;9.962;2023-10-31T04:05:07;12.60;99.90
4749;DHT22;2388;53.582;9.962;2023-10-31T04:07:33;12.60;99.90
4749;DHT22;2388;53.582;9.962;2023-10-31T04:09:58;12.60;99.90
4749;DHT22;2388;53.582;9.962;2023-10-31T04:12:24;12.60;99.90
4749;DHT22;2388;53.582;9.962;2023-10-31T04:14:49;12.70;99.90
4749;DHT22;2388;53.582;9.962;2023-10-31T04:17:14;12.70;99.90
4749;DHT22;2388;53.582;9.962;2023-10-31T04:19:40;12.70;99.90
4749;DHT22;2388;53.582;9.962;2023-10-31T04:22:05;12.70;99.90
4749;DHT22;2388;53.582;9.962;2023-10-31T04:24:31;12.70;99.90
4749;DHT22;2388;53.582;9.962;2023-10-31T04:26:57;12.70;99.90
4749;DHT22;2388;53.582;9.962;2023-10-31T04:29:22;12.70;99.90
4749;DHT22;2388;53.582;9.962;2023-10-31T04:31:48;12.70;99.90
4749;DHT22;2388;53.582;9.962;2023-10-31T04:34:14;12.70;99.90
4749;DHT22;2388;53.582;9.962;2023-10-31T04:36:39;12.70;99.90
4749;DHT22;2388;53.582;9.962;2023-10-31T04:39:05;12.70;99.90
4749;DHT22;2388;53.582;9.962;2023-10-31T04:41:31;12.70;99.90
4749;DHT22;2388;53.582;9.962;2023-10-31T04:43:56;12.70;99.90
4749;DHT22;2388;53.582;9.962;2023-10-31T04:46:22;12.70;99.90
4749;DHT22;2388;53.582;9.962;2023-10-31T04:48:47;12.70;99.90
4749;DHT22;2388;53.582;9.962;2023-10-31T04:51:13;12.70;99.90
4749;DHT22;2388;53.582;9.962;2023-10-31T04:53:39;12.70;99.90
4749;DHT22;2388;53.582;9.962;2023-10-31T04:56:04;12.70;99.90
4749;DHT22;2388;53.582;9.962;2023-10-31T04:58:30;12.80;99.90
4749;DHT22;2388;53.582;9.962;2023-10-31T05:00:55;12.80;99.90
4749;DHT22;2388;53.582;9.962;2023-10-31T05:03:21;12.70;99.90
4749;DHT22;2388;53.582;9.962;2023-10-31T05:05:46;12.70;99.90
4749;DHT22;2388;53.582;9.962;2023-10-31T05:08:12;12.80;99.90
4749;DHT22;2388;53.582;9.962;2023-10-31T05:10:37;13.10;99.90
4749;DHT22;2388;53.582;9.962;2023-10-31T05:13:03;13.20;99.90
4749;DHT22;2388;53.582;9.962;2023-10-31T05:15:28;13.10;99.90
4749;DHT22;2388;53.582;9.962;2023-10-31T05:17:54;13.00;99.90
4749;DHT22;2388;53.582;9.962;2023-10-31T05:20:19;13.00;99.90
4749;DHT22;2388;53.582;9.962;2023-10-31T05:22:45;12.90;99.90
4749;DHT22;2388;53.582;9.962;2023-10-31T05:25:11;12.90;99.90
4749;DHT22;2388;53.582;9.962;2023-10-31T05:27:37;12.90;99.90
4749;DHT22;2388;53.582;9.962;2023-10-31T05:30:03;12.90;99.90
4749;DHT22;2388;53.582;9.962;2023-10-31T05:32:28;12.80;99.90
4749;DHT22;2388;53.582;9.962;2023-10-31T05:34:54;12.80;99.90
4749;DHT22;2388;53.582;9.962;2023-10-31T05:37:20;12.80;99.90
4749;DHT22;2388;53.582;9.962;2023-10-31T05:39:45;12.80;99.90
4749;DHT22;2388;53.582;9.962;2023-10-31T05:42:11;12.80;99.90
4749;DHT22;2388;53.582;9.962;2023-10-31T05:44:36;12.80;99.90
4749;DHT22;2388;53.582;9.962;2023-10-31T05:47:02;12.80;99.90
4749;DHT22;2388;53.582;9.962;2023-10-31T05:49:27;12.80;99.90
4749;DHT22;2388;53.582;9.962;2023-10-31T05:51:53;12.80;99.90
4749;DHT22;2388;53.582;9.962;2023-10-31T05:54:19;12.80;99.90
4749;DHT22;2388;53.582;9.962;2023-10-31T05:56:44;12.80;99.90
4749;DHT22;2388;53.582;9.962;2023-10-31T05:59:11;12.70;99.90
4749;DHT22;2388;53.582;9.962;2023-10-31T06:01:36;12.80;99.90
4749;DHT22;2388;53.582;9.962;2023-10-31T06:04:02;12.80;99.90
4749;DHT22;2388;53.582;9.962;2023-10-31T06:06:29;12.70;99.90
4749;DHT22;2388;53.582;9.962;2023-10-31T06:08:54;12.80;99.90
4749;DHT22;2388;53.582;9.962;2023-10-31T06:11:20;12.70;99.90
4749;DHT22;2388;53.582;9.962;2023-10-31T06:13:45;12.80;99.90
4749;DHT22;2388;53.582;9.962;2023-10-31T06:16:13;12.80;99.90
4749;DHT22;2388;53.582;9.962;2023-10-31T06:18:38;12.80;99.90
4749;DHT22;2388;53.582;9.962;2023-10-31T06:21:05;12.80;99.90
4749;DHT22;2388;53.582;9.962;2023-10-31T06:23:31;12.80;99.90
4749;DHT22;2388;53.582;9.962;2023-10-31T06:25:56;12.80;99.90
4749;DHT22;2388;53.582;9.962;2023-10-31T06:28:23;12.80;99.90
4749;DHT22;2388;53.582;9.962;2023-10-31T06:30:48;12.80;99.90
4749;DHT22;2388;53.582;9.962;2023-10-31T06:33:14;12.80;99.90
4749;DHT22;2388;53.582;9.962;2023-10-31T06:35:39;12.80;99.90
4749;DHT22;2388;53.582;9.962;2023-10-31T06:38:05;12.80;99.90
4749;DHT22;2388;53.582;9.962;2023-10-31T06:40:30;12.80;99.90
4749;DHT22;2388;53.582;9.962;2023-10-31T06:42:55;12.80;99.90
4749;DHT22;2388;53.582;9.962;2023-10-31T06:45:21;12.90;99.90
4749;DHT22;2388;53.582;9.962;2023-10-31T06:47:46;12.90;99.90
4749;DHT22;2388;53.582;9.962;2023-10-31T06:50:12;12.90;99.90
4749;DHT22;2388;53.582;9.962;2023-10-31T06:52:37;12.90;99.90
4749;DHT22;2388;53.582;9.962;2023-10-31T06:55:03;12.90;99.90
4749;DHT22;2388;53.582;9.962;2023-10-31T06:57:29;12.90;99.90
4749;DHT22;2388;53.582;9.962;2023-10-31T06:59:54;12.80;99.90
4749;DHT22;2388;53.582;9.962;2023-10-31T07:02:20;12.80;99.90
4749;DHT22;2388;53.582;9.962;2023-10-31T07:04:46;12.80;99.90
4749;DHT22;2388;53.582;9.962;2023-10-31T07:07:12;12.80;99.90
4749;DHT22;2388;53.582;9.962;2023-10-31T07:09:37;12.90;99.90
4749;DHT22;2388;53.582;9.962;2023-10-31T07:12:03;13.00;99.90
4749;DHT22;2388;53.582;9.962;2023-10-31T07:14:28;13.10;99.90
4749;DHT22;2388;53.582;9.962;2023-10-31T07:16:55;13.30;99.90
4749;DHT22;2388;53.582;9.962;2023-10-31T07:19:21;13.20;99.90
4749;DHT22;2388;53.582;9.962;2023-10-31T07:21:46;13.40;99.90
4749;DHT22;2388;53.582;9.962;2023-10-31T07:24:12;13.40;99.90
4749;DHT22;2388;53.582;9.962;2023-10-31T07:26:38;13.40;99.90
4749;DHT22;2388;53.582;9.962;2023-10-31T07:29:03;13.40;99.90
4749;DHT22;2388;53.582;9.962;2023-10-31T07:31:29;13.30;99.90
4749;DHT22;2388;53.582;9.962;2023-10-31T07:33:54;13.40;99.90
4749;DHT22;2388;53.582;9.962;2023-10-31T07:36:21;13.30;99.90
4749;DHT22;2388;53.582;9.962;2023-10-31T07:38:47;13.40;99.90
4749;DHT22;2388;53.582;9.962;2023-10-31T07:41:13;13.40;99.90
4749;DHT22;2388;53.582;9.962;2023-10-31T07:43:38;13.40;99.90
4749;DHT22;2388;53.582;9.962;2023-10-31T07:46:04;13.30;99.90
4749;DHT22;2388;53.582;9.962;2023-10-31T07:48:30;13.20;99.90
4749;DHT22;2388;53.582;9.962;2023-10-31T07:50:55;13.00;99.90
4749;DHT22;2388;53.582;9.962;2023-10-31T07:53:21;12.90;99.90
4749;DHT22;2388;53.582;9.962;2023-10-31T07:55:46;12.90;99.90
4749;DHT22;2388;53.582;9.962;2023-10-31T07:58:12;12.80;99.90
4749;DHT22;2388;53.582;9.962;2023-10-31T08:00:38;12.80;99.90
4749;DHT22;2388;53.582;9.962;2023-10-31T08:03:04;12.70;99.90
4749;DHT22;2388;53.582;9.962;2023-10-31T08:05:30;12.60;99.90
4749;DHT22;2388;53.582;9.962;2023-10-31T08:07:55;12.50;99.90
4749;DHT22;2388;53.582;9.962;2023-10-31T08:10:21;12.50;99.90
4749;DHT22;2388;53.582;9.962;2023-10-31T08:12:46;12.40;99.90
4749;DHT22;2388;53.582;9.962;2023-10-31T08:15:12;12.50;99.90
4749;DHT22;2388;53.582;9.962;2023-10-31T08:17:39;12.40;99.90
4749;DHT22;2388;53.582;9.962;2023-10-31T08:20:05;12.40;99.90
4749;DHT22;2388;53.582;9.962;2023-10-31T08:22:30;12.30;99.90
4749;DHT22;2388;53.582;9.962;2023-10-31T08:24:56;12.30;99.90
4749;DHT22;2388;53.582;9.962;2023-10-31T08:27:21;12.30;99.90
4749;DHT22;2388;53.582;9.962;2023-10-31T08:29:47;12.20;99.90
4749;DHT22;2388;53.582;9.962;2023-10-31T08:32:12;12.10;99.90
4749;DHT22;2388;53.582;9.962;2023-10-31T08:34:38;12.10;99.90
4749;DHT22;2388;53.582;9.962;2023-10-31T08:37:03;12.10;99.90
4749;DHT22;2388;53.582;9.962;2023-10-31T08:39:29;12.10;99.90
4749;DHT22;2388;53.582;9.962;2023-10-31T08:41:57;12.20;99.90
4749;DHT22;2388;53.582;9.962;2023-10-31T08:44:22;12.20;99.90
4749;DHT22;2388;53.582;9.962;2023-10-31T08:46:48;12.20;99.90
4749;DHT22;2388;53.582;9.962;2023-10-31T08:49:16;12.10;99.90
4749;DHT22;2388;53.582;9.962;2023-10-31T08:51:43;12.10;99.90
4749;DHT22;2388;53.582;9.962;2023-10-31T08:54:10;12.00;99.90
4749;DHT22;2388;53.582;9.962;2023-10-31T08:56:35;11.90;99.90
4749;DHT22;2388;53.582;9.962;2023-10-31T08:59:01;11.80;99.90
4749;DHT22;2388;53.582;9.962;2023-10-31T09:01:27;11.80;99.90
4749;DHT22;2388;53.582;9.962;2023-10-31T09:03:53;11.70;99.90
4749;DHT22;2388;53.582;9.962;2023-10-31T09:06:18;11.80;99.90
4749;DHT22;2388;53.582;9.962;2023-10-31T09:08:44;11.80;99.90
4749;DHT22;2388;53.582;9.962;2023-10-31T09:11:09;11.80;99.90
4749;DHT22;2388;53.582;9.962;2023-10-31T09:13:35;11.80;99.90
4749;DHT22;2388;53.582;9.962;2023-10-31T09:16:01;11.80;99.90
4749;DHT22;2388;53.582;9.962;2023-10-31T09:18:27;11.70;99.90
4749;DHT22;2388;53.582;9.962;2023-10-31T09:20:53;11.80;99.90
4749;DHT22;2388;53.582;9.962;2023-10-31T09:23:19;11.80;99.90
4749;DHT22;2388;53.582;9.962;2023-10-31T09:25:45;11.80;99.90
4749;DHT22;2388;53.582;9.962;2023-10-31T09:28:10;11.80;99.90
4749;DHT22;2388;53.582;9.962;2023-10-31T09:30:36;11.70;99.90
4749;DHT22;2388;53.582;9.962;2023-10-31T09:33:01;11.80;99.90
4749;DHT22;2388;53.582;9.962;2023-10-31T09:35:27;11.70;99.90
4749;DHT22;2388;53.582;9.962;2023-10-31T09:37:53;11.60;99.90
4749;DHT22;2388;53.582;9.962;2023-10-31T09:40:19;11.60;99.90
4749;DHT22;2388;53.582;9.962;2023-10-31T09:42:45;11.50;99.90
4749;DHT22;2388;53.582;9.962;2023-10-31T09:45:14;11.40;99.90
4749;DHT22;2388;53.582;9.962;2023-10-31T09:47:40;11.40;99.90
4749;DHT22;2388;53.582;9.962;2023-10-31T09:50:08;11.40;99.90
4749;DHT22;2388;53.582;9.962;2023-10-31T09:52:35;11.30;99.90
4749;DHT22;2388;53.582;9.962;2023-10-31T09:55:01;11.20;99.90
4749;DHT22;2388;53.582;9.962;2023-10-31T09:57:27;11.20;99.90
4749;DHT22;2388;53.582;9.962;2023-10-31T09:59:53;11.10;99.90
4749;DHT22;2388;53.582;9.962;2023-10-31T10:02:18;11.00;99.90
4749;DHT22;2388;53.582;9.962;2023-10-31T10:04:44;11.00;99.90
4749;DHT22;2388;53.582;9.962;2023-10-31T10:07:13;11.00;99.90
4749;DHT22;2388;53.582;9.962;2023-10-31T10:09:40;11.00;99.90
4749;DHT22;2388;53.582;9.962;2023-10-31T10:12:07;11.00;99.90
4749;DHT22;2388;53.582;9.962;2023-10-31T10:14:32;10.90;99.90
4749;DHT22;2388;53.582;9.962;2023-10-31T10:16:59;10.90;99.90
4749;DHT22;2388;53.582;9.962;2023-10-31T10:19:25;10.90;99.90
4749;DHT22;2388;53.582;9.962;2023-10-31T10:21:58;11.00;99.90
4749;DHT22;2388;53.582;9.962;2023-10-31T10:24:24;11.00;99.90
4749;DHT22;2388;53.582;9.962;2023-10-31T10:26:50;11.00;99.90
4749;DHT22;2388;53.582;9.962;2023-10-31T10:29:16;11.00;99.90
4749;DHT22;2388;53.582;9.962;2023-10-31T10:31:42;11.00;99.90
4749;DHT22;2388;53.582;9.962;2023-10-31T10:34:14;11.10;99.90
4749;DHT22;2388;53.582;9.962;2023-10-31T10:36:40;11.10;99.90
4749;DHT22;2388;53.582;9.962;2023-10-31T10:39:06;11.10;99.90
4749;DHT22;2388;53.582;9.962;2023-10-31T10:41:35;11.10;99.90
4749;DHT22;2388;53.582;9.962;2023-10-31T10:44:05;11.10;99.90
4749;DHT22;2388;53.582;9.962;2023-10-31T10:46:34;11.10;99.90
4749;DHT22;2388;53.582;9.962;2023-10-31T10:49:04;11.20;99.90
4749;DHT22;2388;53.582;9.962;2023-10-31T10:51:43;11.20;99.90
4749;DHT22;2388;53.582;9.962;2023-10-31T10:54:26;11.20;99.90
4749;DHT22;2388;53.582;9.962;2023-10-31T10:57:03;11.20;99.90
4749;DHT22;2388;53.582;9.962;2023-10-31T10:59:40;11.20;99.90
4749;DHT22;2388;53.582;9.962;2023-10-31T11:02:06;11.20;99.90
4749;DHT22;2388;53.582;9.962;2023-10-31T11:04:33;11.20;99.90
4749;DHT22;2388;53.582;9.962;2023-10-31T11:06:59;11.20;99.90
4749;DHT22;2388;53.582;9.962;2023-10-31T11:09:25;11.20;99.90
4749;DHT22;2388;53.582;9.962;2023-10-31T11:11:52;11.20;99.90
4749;DHT22;2388;53.582;9.962;2023-10-31T11:14:19;11.20;99.90
4749;DHT22;2388;53.582;9.962;2023-10-31T11:16:48;11.20;99.90
4749;DHT22;2388;53.582;9.962;2023-10-31T11:19:17;11.20;99.90
4749;DHT22;2388;53.582;9.962;2023-10-31T11:21:59;11.30;99.90
4749;DHT22;2388;53.582;9.962;2023-10-31T11:24:30;11.20;99.90
4749;DHT22;2388;53.582;9.962;2023-10-31T11:27:04;11.20;99.90
4749;DHT22;2388;53.582;9.962;2023-10-31T11:29:32;11.20;99.90
4749;DHT22;2388;53.582;9.962;2023-10-31T11:31:59;11.20;99.90
4749;DHT22;2388;53.582;9.962;2023-10-31T11:34:28;11.20;99.90
4749;DHT22;2388;53.582;9.962;2023-10-31T11:37:18;11.20;99.90
4749;DHT22;2388;53.582;9.962;2023-10-31T11:42:40;11.30;99.90
4749;DHT22;2388;53.582;9.962;2023-10-31T11:45:08;11.30;99.90
4749;DHT22;2388;53.582;9.962;2023-10-31T11:47:47;11.40;99.90
4749;DHT22;2388;53.582;9.962;2023-10-31T11:50:13;11.40;99.90
4749;DHT22;2388;53.582;9.962;2023-10-31T11:52:39;11.40;99.90
4749;DHT22;2388;53.582;9.962;2023-10-31T11:55:08;11.30;99.90
4749;DHT22;2388;53.582;9.962;2023-10-31T11:57:34;11.40;99.90
4749;DHT22;2388;53.582;9.962;2023-10-31T11:59:59;11.40;99.90
4749;DHT22;2388;53.582;9.962;2023-10-31T12:02:25;11.40;99.90
4749;DHT22;2388;53.582;9.962;2023-10-31T12:04:51;11.50;99.90
4749;DHT22;2388;53.582;9.962;2023-10-31T12:07:18;11.50;99.90
4749;DHT22;2388;53.582;9.962;2023-10-31T12:09:47;11.50;99.90
4749;DHT22;2388;53.582;9.962;2023-10-31T12:12:13;11.50;99.90
4749;DHT22;2388;53.582;9.962;2023-10-31T12:14:39;11.50;99.90
4749;DHT22;2388;53.582;9.962;2023-10-31T12:17:05;11.60;99.90
4749;DHT22;2388;53.582;9.962;2023-10-31T12:19:32;11.60;99.90
4749;DHT22;2388;53.582;9.962;2023-10-31T12:21:58;11.70;99.90
4749;DHT22;2388;53.582;9.962;2023-10-31T12:24:23;11.80;99.90
4749;DHT22;2388;53.582;9.962;2023-10-31T12:26:49;11.90;99.90
4749;DHT22;2388;53.582;9.962;2023-10-31T12:29:16;11.90;99.90
4749;DHT22;2388;53.582;9.962;2023-10-31T12:31:44;11.80;99.90
4749;DHT22;2388;53.582;9.962;2023-10-31T12:34:14;11.80;99.90
4749;DHT22;2388;53.582;9.962;2023-10-31T12:36:40;11.80;99.90
4749;DHT22;2388;53.582;9.962;2023-10-31T12:39:07;11.80;99.90
4749;DHT22;2388;53.582;9.962;2023-10-31T12:41:35;11.80;99.90
4749;DHT22;2388;53.582;9.962;2023-10-31T12:44:01;11.80;99.90
4749;DHT22;2388;53.582;9.962;2023-10-31T12:46:31;11.80;99.90
4749;DHT22;2388;53.582;9.962;2023-10-31T12:48:57;11.80;99.90
4749;DHT22;2388;53.582;9.962;2023-10-31T12:51:24;11.90;99.90
4749;DHT22;2388;53.582;9.962;2023-10-31T12:53:52;12.00;99.90
4749;DHT22;2388;53.582;9.962;2023-10-31T12:56:37;12.00;99.90
4749;DHT22;2388;53.582;9.962;2023-10-31T12:59:06;12.00;99.90
4749;DHT22;2388;53.582;9.962;2023-10-31T13:01:42;11.90;99.90
4749;DHT22;2388;53.582;9.962;2023-10-31T13:04:09;11.90;99.90
4749;DHT22;2388;53.582;9.962;2023-10-31T13:06:35;12.00;99.90
4749;DHT22;2388;53.582;9.962;2023-10-31T13:09:01;12.00;99.90
4749;DHT22;2388;53.582;9.962;2023-10-31T13:11:31;12.00;99.90
4749;DHT22;2388;53.582;9.962;2023-10-31T13:13:57;12.00;99.90
4749;DHT22;2388;53.582;9.962;2023-10-31T13:16:24;12.00;99.90
4749;DHT22;2388;53.582;9.962;2023-10-31T13:18:52;12.00;99.90
4749;DHT22;2388;53.582;9.962;2023-10-31T13:21:18;12.00;99.90
4749;DHT22;2388;53.582;9.962;2023-10-31T13:23:43;12.00;99.90
4749;DHT22;2388;53.582;9.962;2023-10-31T13:26:11;12.00;99.90
4749;DHT22;2388;53.582;9.962;2023-10-31T13:28:37;12.00;99.90
4749;DHT22;2388;53.582;9.962;2023-10-31T13:31:04;11.90;99.90
4749;DHT22;2388;53.582;9.962;2023-10-31T13:33:30;11.90;99.90
4749;DHT22;2388;53.582;9.962;2023-10-31T13:35:55;11.80;99.90
4749;DHT22;2388;53.582;9.962;2023-10-31T13:38:21;11.90;99.90
4749;DHT22;2388;53.582;9.962;2023-10-31T13:40:46;11.80;99.90
4749;DHT22;2388;53.582;9.962;2023-10-31T13:43:12;11.70;99.90
4749;DHT22;2388;53.582;9.962;2023-10-31T13:45:37;11.50;99.90
4749;DHT22;2388;53.582;9.962;2023-10-31T13:48:03;11.40;99.90
4749;DHT22;2388;53.582;9.962;2023-10-31T13:50:29;11.40;99.90
4749;DHT22;2388;53.582;9.962;2023-10-31T13:52:55;11.20;99.90
4749;DHT22;2388;53.582;9.962;2023-10-31T13:55:21;11.00;99.90
4749;DHT22;2388;53.582;9.962;2023-10-31T13:57:46;10.90;99.90
4749;DHT22;2388;53.582;9.962;2023-10-31T14:00:12;10.70;99.90
4749;DHT22;2388;53.582;9.962;2023-10-31T14:02:39;10.60;99.90
4749;DHT22;2388;53.582;9.962;2023-10-31T14:05:05;10.40;99.90
4749;DHT22;2388;53.582;9.962;2023-10-31T14:07:31;10.40;99.90
4749;DHT22;2388;53.582;9.962;2023-10-31T14:09:56;10.20;99.90
4749;DHT22;2388;53.582;9.962;2023-10-31T14:12:23;10.30;99.90
4749;DHT22;2388;53.582;9.962;2023-10-31T14:14:48;10.20;99.90
4749;DHT22;2388;53.582;9.962;2023-10-31T14:17:15;10.30;99.90
4749;DHT22;2388;53.582;9.962;2023-10-31T14:19:42;10.20;99.90
4749;DHT22;2388;53.582;9.962;2023-10-31T14:22:08;10.10;99.90
4749;DHT22;2388;53.582;9.962;2023-10-31T14:24:33;10.10;99.90
4749;DHT22;2388;53.582;9.962;2023-10-31T14:27:00;10.10;99.90
4749;DHT22;2388;53.582;9.962;2023-10-31T14:29:25;10.00;99.90
4749;DHT22;2388;53.582;9.962;2023-10-31T14:31:51;10.00;99.90
4749;DHT22;2388;53.582;9.962;2023-10-31T14:34:16;9.90;99.90
4749;DHT22;2388;53.582;9.962;2023-10-31T14:36:42;9.90;99.90
4749;DHT22;2388;53.582;9.962;2023-10-31T14:39:08;9.80;99.90
4749;DHT22;2388;53.582;9.962;2023-10-31T14:41:35;9.80;99.90
4749;DHT22;2388;53.582;9.962;2023-10-31T14:44:00;9.80;99.90
4749;DHT22;2388;53.582;9.962;2023-10-31T14:46:27;9.70;99.90
4749;DHT22;2388;53.582;9.962;2023-10-31T14:48:53;9.70;99.90
4749;DHT22;2388;53.582;9.962;2023-10-31T14:51:19;9.70;99.90
4749;DHT22;2388;53.582;9.962;2023-10-31T14:53:44;9.70;99.90
4749;DHT22;2388;53.582;9.962;2023-10-31T14:56:09;9.70;99.90
4749;DHT22;2388;53.582;9.962;2023-10-31T14:58:35;9.60;99.90
4749;DHT22;2388;53.582;9.962;2023-10-31T15:01:01;9.50;99.90
4749;DHT22;2388;53.582;9.962;2023-10-31T15:03:26;9.50;99.90
4749;DHT22;2388;53.582;9.962;2023-10-31T15:05:52;9.50;99.90
4749;DHT22;2388;53.582;9.962;2023-10-31T15:08:17;9.40;99.90
4749;DHT22;2388;53.582;9.962;2023-10-31T15:10:43;9.30;99.90
4749;DHT22;2388;53.582;9.962;2023-10-31T15:13:09;9.20;99.90
4749;DHT22;2388;53.582;9.962;2023-10-31T15:15:35;9.20;99.90
4749;DHT22;2388;53.582;9.962;2023-10-31T15:18:00;9.20;99.90
4749;DHT22;2388;53.582;9.962;2023-10-31T15:20:26;9.10;99.90
4749;DHT22;2388;53.582;9.962;2023-10-31T15:22:52;9.10;99.90
4749;DHT22;2388;53.582;9.962;2023-10-31T15:25:18;9.10;99.90
4749;DHT22;2388;53.582;9.962;2023-10-31T15:27:44;9.00;99.90
4749;DHT22;2388;53.582;9.962;2023-10-31T15:30:09;8.90;99.90
4749;DHT22;2388;53.582;9.962;2023-10-31T15:32:36;8.90;99.90
4749;DHT22;2388;53.582;9.962;2023-10-31T15:35:04;8.90;99.90
4749;DHT22;2388;53.582;9.962;2023-10-31T15:37:30;8.90;99.90
4749;DHT22;2388;53.582;9.962;2023-10-31T15:39:55;8.80;99.90
4749;DHT22;2388;53.582;9.962;2023-10-31T15:42:21;8.70;99.90
4749;DHT22;2388;53.582;9.962;2023-10-31T15:44:46;8.70;99.90
4749;DHT22;2388;53.582;9.962;2023-10-31T15:47:12;8.70;99.90
4749;DHT22;2388;53.582;9.962;2023-10-31T15:49:40;8.70;99.90
4749;DHT22;2388;53.582;9.962;2023-10-31T15:52:06;8.70;99.90
4749;DHT22;2388;53.582;9.962;2023-10-31T15:54:31;8.60;99.90
4749;DHT22;2388;53.582;9.962;2023-10-31T15:56:58;8.30;99.90
4749;DHT22;2388;53.582;9.962;2023-10-31T15:59:25;8.70;99.90